sensor_id;sensor_type;location;lat;lon;timestamp;P1;durP1;ratioP1;P2;durP2;ratioP2
44480;SDS011;30184;42.018;23.670;2023-06-22T00:01:41;14.15;;;10.20;;
44480;SDS011;30184;42.018;23.670;2023-06-22T00:04:10;14.35;;;10.02;;
44480;SDS011;30184;42.018;23.670;2023-06-22T00:06:41;15.38;;;10.43;;
44480;SDS011;30184;42.018;23.670;2023-06-22T00:09:10;14.98;;;10.80;;
44480;SDS011;30184;42.018;23.670;2023-06-22T00:11:39;15.00;;;10.68;;
44480;SDS011;30184;42.018;23.670;2023-06-22T00:14:08;15.45;;;10.82;;
44480;SDS011;30184;42.018;23.670;2023-06-22T00:16:37;14.73;;;10.05;;
44480;SDS011;30184;42.018;23.670;2023-06-22T00:19:06;13.63;;;10.65;;
44480;SDS011;30184;42.018;23.670;2023-06-22T00:21:39;14.93;;;10.25;;
44480;SDS011;30184;42.018;23.670;2023-06-22T00:24:09;14.02;;;10.93;;
44480;SDS011;30184;42.018;23.670;2023-06-22T00:26:39;16.00;;;11.40;;
44480;SDS011;30184;42.018;23.670;2023-06-22T00:29:09;18.92;;;11.15;;
44480;SDS011;30184;42.018;23.670;2023-06-22T00:31:38;17.20;;;10.50;;
44480;SDS011;30184;42.018;23.670;2023-06-22T00:34:08;16.55;;;11.05;;
44480;SDS011;30184;42.018;23.670;2023-06-22T00:36:37;15.82;;;10.98;;
44480;SDS011;30184;42.018;23.670;2023-06-22T00:39:09;17.67;;;11.40;;
44480;SDS011;30184;42.018;23.670;2023-06-22T00:41:39;17.08;;;11.18;;
44480;SDS011;30184;42.018;23.670;2023-06-22T00:44:08;14.68;;;10.23;;
44480;SDS011;30184;42.018;23.670;2023-06-22T00:46:37;15.10;;;10.75;;
44480;SDS011;30184;42.018;23.670;2023-06-22T00:49:06;14.90;;;11.10;;
44480;SDS011;30184;42.018;23.670;2023-06-22T00:51:35;18.13;;;10.93;;
44480;SDS011;30184;42.018;23.670;2023-06-22T00:54:06;13.27;;;10.77;;
44480;SDS011;30184;42.018;23.670;2023-06-22T00:56:36;15.85;;;10.40;;
44480;SDS011;30184;42.018;23.670;2023-06-22T00:59:06;15.32;;;11.82;;
44480;SDS011;30184;42.018;23.670;2023-06-22T01:01:40;14.50;;;10.82;;
44480;SDS011;30184;42.018;23.670;2023-06-22T01:04:09;15.18;;;10.35;;
44480;SDS011;30184;42.018;23.670;2023-06-22T01:06:41;16.25;;;10.50;;
44480;SDS011;30184;42.018;23.670;2023-06-22T01:09:22;14.68;;;10.40;;
44480;SDS011;30184;42.018;23.670;2023-06-22T01:12:01;16.35;;;10.73;;
44480;SDS011;30184;42.018;23.670;2023-06-22T01:14:34;17.73;;;11.10;;
44480;SDS011;30184;42.018;23.670;2023-06-22T01:17:06;17.05;;;11.20;;
44480;SDS011;30184;42.018;23.670;2023-06-22T01:19:39;12.95;;;10.02;;
44480;SDS011;30184;42.018;23.670;2023-06-22T01:22:15;15.48;;;10.65;;
44480;SDS011;30184;42.018;23.670;2023-06-22T01:24:51;14.18;;;11.27;;
44480;SDS011;30184;42.018;23.670;2023-06-22T01:27:36;15.77;;;10.70;;
44480;SDS011;30184;42.018;23.670;2023-06-22T01:30:17;16.02;;;10.10;;
44480;SDS011;30184;42.018;23.670;2023-06-22T01:32:48;14.45;;;10.70;;
44480;SDS011;30184;42.018;23.670;2023-06-22T01:35:18;14.82;;;10.65;;
44480;SDS011;30184;42.018;23.670;2023-06-22T01:37:50;16.48;;;11.75;;
44480;SDS011;30184;42.018;23.670;2023-06-22T01:40:19;17.20;;;11.98;;
44480;SDS011;30184;42.018;23.670;2023-06-22T01:42:51;16.13;;;10.23;;
44480;SDS011;30184;42.018;23.670;2023-06-22T01:45:22;14.73;;;11.50;;
44480;SDS011;30184;42.018;23.670;2023-06-22T01:47:52;14.45;;;10.43;;
44480;SDS011;30184;42.018;23.670;2023-06-22T01:50:22;15.65;;;10.90;;
44480;SDS011;30184;42.018;23.670;2023-06-22T01:52:51;13.32;;;10.70;;
44480;SDS011;30184;42.018;23.670;2023-06-22T01:55:20;14.73;;;10.38;;
44480;SDS011;30184;42.018;23.670;2023-06-22T01:57:49;13.15;;;9.52;;
44480;SDS011;30184;42.018;23.670;2023-06-22T02:00:19;15.45;;;10.88;;
44480;SDS011;30184;42.018;23.670;2023-06-22T02:02:54;13.82;;;10.40;;
44480;SDS011;30184;42.018;23.670;2023-06-22T02:05:28;14.75;;;10.93;;
44480;SDS011;30184;42.018;23.670;2023-06-22T02:08:05;15.27;;;10.77;;
44480;SDS011;30184;42.018;23.670;2023-06-22T02:10:37;14.93;;;10.15;;
44480;SDS011;30184;42.018;23.670;2023-06-22T02:13:09;13.40;;;10.25;;
44480;SDS011;30184;42.018;23.670;2023-06-22T02:15:41;16.27;;;10.10;;
44480;SDS011;30184;42.018;23.670;2023-06-22T02:18:12;17.10;;;10.00;;
44480;SDS011;30184;42.018;23.670;2023-06-22T02:20:41;13.60;;;10.00;;
44480;SDS011;30184;42.018;23.670;2023-06-22T02:23:10;14.50;;;10.48;;
44480;SDS011;30184;42.018;23.670;2023-06-22T02:25:39;13.30;;;9.38;;
44480;SDS011;30184;42.018;23.670;2023-06-22T02:28:11;14.25;;;9.68;;
44480;SDS011;30184;42.018;23.670;2023-06-22T02:30:42;14.00;;;9.05;;
44480;SDS011;30184;42.018;23.670;2023-06-22T02:33:11;13.15;;;8.80;;
44480;SDS011;30184;42.018;23.670;2023-06-22T02:35:40;13.85;;;9.80;;
44480;SDS011;30184;42.018;23.670;2023-06-22T02:38:14;17.23;;;8.85;;
44480;SDS011;30184;42.018;23.670;2023-06-22T02:40:44;13.38;;;9.13;;
44480;SDS011;30184;42.018;23.670;2023-06-22T02:43:14;13.73;;;8.98;;
44480;SDS011;30184;42.018;23.670;2023-06-22T02:45:45;12.02;;;8.32;;
44480;SDS011;30184;42.018;23.670;2023-06-22T02:48:16;12.32;;;8.70;;
44480;SDS011;30184;42.018;23.670;2023-06-22T02:50:45;15.50;;;8.65;;
44480;SDS011;30184;42.018;23.670;2023-06-22T02:53:14;11.55;;;8.82;;
44480;SDS011;30184;42.018;23.670;2023-06-22T02:55:46;11.32;;;8.25;;
44480;SDS011;30184;42.018;23.670;2023-06-22T02:58:15;11.35;;;8.38;;
44480;SDS011;30184;42.018;23.670;2023-06-22T03:00:46;12.45;;;8.65;;
44480;SDS011;30184;42.018;23.670;2023-06-22T03:03:15;13.30;;;8.65;;
44480;SDS011;30184;42.018;23.670;2023-06-22T03:05:44;15.40;;;10.65;;
44480;SDS011;30184;42.018;23.670;2023-06-22T03:08:14;24.25;;;13.43;;
44480;SDS011;30184;42.018;23.670;2023-06-22T03:10:43;17.52;;;12.45;;
44480;SDS011;30184;42.018;23.670;2023-06-22T03:13:12;15.70;;;10.35;;
44480;SDS011;30184;42.018;23.670;2023-06-22T03:15:41;17.85;;;11.55;;
44480;SDS011;30184;42.018;23.670;2023-06-22T03:18:12;17.67;;;10.50;;
44480;SDS011;30184;42.018;23.670;2023-06-22T03:20:41;14.57;;;10.70;;
44480;SDS011;30184;42.018;23.670;2023-06-22T03:23:10;13.85;;;10.23;;
44480;SDS011;30184;42.018;23.670;2023-06-22T03:25:40;14.70;;;9.25;;
44480;SDS011;30184;42.018;23.670;2023-06-22T03:28:12;16.42;;;9.55;;
44480;SDS011;30184;42.018;23.670;2023-06-22T03:30:41;15.88;;;9.23;;
44480;SDS011;30184;42.018;23.670;2023-06-22T03:33:11;13.20;;;8.18;;
44480;SDS011;30184;42.018;23.670;2023-06-22T03:35:40;12.95;;;8.90;;
44480;SDS011;30184;42.018;23.670;2023-06-22T03:38:11;12.88;;;8.90;;
44480;SDS011;30184;42.018;23.670;2023-06-22T03:40:40;14.13;;;8.98;;
44480;SDS011;30184;42.018;23.670;2023-06-22T03:43:09;13.13;;;9.23;;
44480;SDS011;30184;42.018;23.670;2023-06-22T03:45:38;13.93;;;9.38;;
44480;SDS011;30184;42.018;23.670;2023-06-22T03:48:08;13.57;;;8.73;;
44480;SDS011;30184;42.018;23.670;2023-06-22T03:50:39;17.88;;;9.82;;
44480;SDS011;30184;42.018;23.670;2023-06-22T03:53:08;13.70;;;10.00;;
44480;SDS011;30184;42.018;23.670;2023-06-22T03:55:40;15.70;;;11.07;;
44480;SDS011;30184;42.018;23.670;2023-06-22T03:58:16;17.63;;;12.43;;
44480;SDS011;30184;42.018;23.670;2023-06-22T04:00:46;17.23;;;12.10;;
44480;SDS011;30184;42.018;23.670;2023-06-22T04:03:15;23.02;;;15.70;;
44480;SDS011;30184;42.018;23.670;2023-06-22T04:05:47;18.42;;;13.02;;
44480;SDS011;30184;42.018;23.670;2023-06-22T04:08:16;15.48;;;11.18;;
44480;SDS011;30184;42.018;23.670;2023-06-22T04:10:46;16.02;;;10.60;;
44480;SDS011;30184;42.018;23.670;2023-06-22T04:13:15;13.65;;;10.32;;
44480;SDS011;30184;42.018;23.670;2023-06-22T04:15:45;15.48;;;10.60;;
44480;SDS011;30184;42.018;23.670;2023-06-22T04:18:14;15.05;;;10.18;;
44480;SDS011;30184;42.018;23.670;2023-06-22T04:20:43;15.45;;;9.95;;
44480;SDS011;30184;42.018;23.670;2023-06-22T04:23:15;18.05;;;10.30;;
44480;SDS011;30184;42.018;23.670;2023-06-22T04:25:45;17.25;;;11.93;;
44480;SDS011;30184;42.018;23.670;2023-06-22T04:28:14;13.88;;;10.40;;
44480;SDS011;30184;42.018;23.670;2023-06-22T04:30:43;16.70;;;10.88;;
44480;SDS011;30184;42.018;23.670;2023-06-22T04:33:14;13.30;;;10.02;;
44480;SDS011;30184;42.018;23.670;2023-06-22T04:35:44;15.07;;;9.85;;
44480;SDS011;30184;42.018;23.670;2023-06-22T04:38:15;14.80;;;9.50;;
44480;SDS011;30184;42.018;23.670;2023-06-22T04:40:45;14.90;;;9.90;;
44480;SDS011;30184;42.018;23.670;2023-06-22T04:43:14;16.27;;;10.27;;
44480;SDS011;30184;42.018;23.670;2023-06-22T04:45:43;13.43;;;9.52;;
44480;SDS011;30184;42.018;23.670;2023-06-22T04:48:12;13.57;;;9.88;;
44480;SDS011;30184;42.018;23.670;2023-06-22T04:50:43;18.17;;;10.23;;
44480;SDS011;30184;42.018;23.670;2023-06-22T04:53:12;12.85;;;10.05;;
44480;SDS011;30184;42.018;23.670;2023-06-22T04:55:43;13.38;;;9.65;;
44480;SDS011;30184;42.018;23.670;2023-06-22T04:58:13;14.23;;;10.50;;
44480;SDS011;30184;42.018;23.670;2023-06-22T05:00:43;15.15;;;10.77;;
44480;SDS011;30184;42.018;23.670;2023-06-22T05:03:12;16.05;;;10.25;;
44480;SDS011;30184;42.018;23.670;2023-06-22T05:05:45;14.35;;;9.73;;
44480;SDS011;30184;42.018;23.670;2023-06-22T05:08:15;13.27;;;9.27;;
44480;SDS011;30184;42.018;23.670;2023-06-22T05:10:46;14.20;;;9.68;;
44480;SDS011;30184;42.018;23.670;2023-06-22T05:13:25;13.25;;;8.90;;
44480;SDS011;30184;42.018;23.670;2023-06-22T05:15:55;12.77;;;9.10;;
44480;SDS011;30184;42.018;23.670;2023-06-22T05:18:28;12.35;;;9.00;;
44480;SDS011;30184;42.018;23.670;2023-06-22T05:20:58;17.08;;;8.85;;
44480;SDS011;30184;42.018;23.670;2023-06-22T05:23:27;11.98;;;8.77;;
44480;SDS011;30184;42.018;23.670;2023-06-22T05:25:58;14.00;;;9.38;;
44480;SDS011;30184;42.018;23.670;2023-06-22T05:28:27;14.65;;;9.60;;
44480;SDS011;30184;42.018;23.670;2023-06-22T05:30:56;11.75;;;8.85;;
44480;SDS011;30184;42.018;23.670;2023-06-22T05:33:25;18.77;;;10.57;;
44480;SDS011;30184;42.018;23.670;2023-06-22T05:35:54;22.10;;;11.65;;
44480;SDS011;30184;42.018;23.670;2023-06-22T05:38:24;17.42;;;11.15;;
44480;SDS011;30184;42.018;23.670;2023-06-22T05:40:53;22.63;;;15.05;;
44480;SDS011;30184;42.018;23.670;2023-06-22T05:43:24;13.48;;;10.52;;
44480;SDS011;30184;42.018;23.670;2023-06-22T05:45:53;17.27;;;11.70;;
44480;SDS011;30184;42.018;23.670;2023-06-22T05:48:22;19.80;;;11.15;;
44480;SDS011;30184;42.018;23.670;2023-06-22T05:50:52;22.13;;;14.02;;
44480;SDS011;30184;42.018;23.670;2023-06-22T05:53:21;17.45;;;9.98;;
44480;SDS011;30184;42.018;23.670;2023-06-22T05:55:50;17.17;;;11.05;;
44480;SDS011;30184;42.018;23.670;2023-06-22T05:58:19;12.38;;;9.48;;
44480;SDS011;30184;42.018;23.670;2023-06-22T06:00:50;12.65;;;9.25;;
44480;SDS011;30184;42.018;23.670;2023-06-22T06:03:19;14.57;;;10.00;;
44480;SDS011;30184;42.018;23.670;2023-06-22T06:05:48;18.17;;;9.55;;
44480;SDS011;30184;42.018;23.670;2023-06-22T06:08:17;12.88;;;6.88;;
44480;SDS011;30184;42.018;23.670;2023-06-22T06:10:46;11.93;;;8.35;;
44480;SDS011;30184;42.018;23.670;2023-06-22T06:13:16;14.88;;;8.50;;
44480;SDS011;30184;42.018;23.670;2023-06-22T06:15:45;12.40;;;8.45;;
44480;SDS011;30184;42.018;23.670;2023-06-22T06:18:16;11.07;;;7.03;;
44480;SDS011;30184;42.018;23.670;2023-06-22T06:20:46;15.27;;;7.32;;
44480;SDS011;30184;42.018;23.670;2023-06-22T06:23:15;10.43;;;7.30;;
44480;SDS011;30184;42.018;23.670;2023-06-22T06:25:44;10.85;;;7.78;;
44480;SDS011;30184;42.018;23.670;2023-06-22T06:28:13;20.52;;;16.95;;
44480;SDS011;30184;42.018;23.670;2023-06-22T06:30:42;11.80;;;8.15;;
44480;SDS011;30184;42.018;23.670;2023-06-22T06:33:11;13.75;;;7.95;;
44480;SDS011;30184;42.018;23.670;2023-06-22T06:35:42;13.00;;;8.60;;
44480;SDS011;30184;42.018;23.670;2023-06-22T06:38:11;11.65;;;7.82;;
44480;SDS011;30184;42.018;23.670;2023-06-22T06:40:40;10.38;;;7.60;;
44480;SDS011;30184;42.018;23.670;2023-06-22T06:43:09;15.88;;;8.07;;
44480;SDS011;30184;42.018;23.670;2023-06-22T06:45:38;14.00;;;8.43;;
44480;SDS011;30184;42.018;23.670;2023-06-22T06:48:07;13.63;;;8.68;;
44480;SDS011;30184;42.018;23.670;2023-06-22T06:50:36;9.45;;;7.30;;
44480;SDS011;30184;42.018;23.670;2023-06-22T06:53:07;12.48;;;7.82;;
44480;SDS011;30184;42.018;23.670;2023-06-22T06:55:36;9.23;;;7.40;;
44480;SDS011;30184;42.018;23.670;2023-06-22T06:58:05;9.93;;;7.03;;
44480;SDS011;30184;42.018;23.670;2023-06-22T07:00:35;9.13;;;7.13;;
44480;SDS011;30184;42.018;23.670;2023-06-22T07:03:04;10.00;;;6.90;;
44480;SDS011;30184;42.018;23.670;2023-06-22T07:05:34;9.10;;;7.35;;
44480;SDS011;30184;42.018;23.670;2023-06-22T07:08:04;13.98;;;6.80;;
44480;SDS011;30184;42.018;23.670;2023-06-22T07:10:34;10.60;;;6.85;;
44480;SDS011;30184;42.018;23.670;2023-06-22T07:13:04;10.20;;;7.30;;
44480;SDS011;30184;42.018;23.670;2023-06-22T07:15:33;11.25;;;7.32;;
44480;SDS011;30184;42.018;23.670;2023-06-22T07:18:03;10.15;;;6.97;;
44480;SDS011;30184;42.018;23.670;2023-06-22T07:20:32;9.20;;;7.50;;
44480;SDS011;30184;42.018;23.670;2023-06-22T07:23:02;10.98;;;7.20;;
44480;SDS011;30184;42.018;23.670;2023-06-22T07:25:31;10.40;;;7.70;;
44480;SDS011;30184;42.018;23.670;2023-06-22T07:28:02;17.00;;;7.30;;
44480;SDS011;30184;42.018;23.670;2023-06-22T07:30:32;8.18;;;6.32;;
44480;SDS011;30184;42.018;23.670;2023-06-22T07:33:02;9.25;;;6.00;;
44480;SDS011;30184;42.018;23.670;2023-06-22T07:35:33;9.48;;;6.00;;
44480;SDS011;30184;42.018;23.670;2023-06-22T07:38:03;10.25;;;6.10;;
44480;SDS011;30184;42.018;23.670;2023-06-22T07:40:32;8.10;;;6.25;;
44480;SDS011;30184;42.018;23.670;2023-06-22T07:43:04;10.10;;;6.60;;
44480;SDS011;30184;42.018;23.670;2023-06-22T07:45:33;10.00;;;6.43;;
44480;SDS011;30184;42.018;23.670;2023-06-22T07:48:02;8.23;;;5.28;;
44480;SDS011;30184;42.018;23.670;2023-06-22T07:50:31;6.53;;;4.95;;
44480;SDS011;30184;42.018;23.670;2023-06-22T07:53:01;7.43;;;5.20;;
44480;SDS011;30184;42.018;23.670;2023-06-22T07:55:30;7.43;;;5.72;;
44480;SDS011;30184;42.018;23.670;2023-06-22T07:57:59;8.82;;;6.00;;
44480;SDS011;30184;42.018;23.670;2023-06-22T08:00:29;7.50;;;5.18;;
44480;SDS011;30184;42.018;23.670;2023-06-22T08:03:00;9.15;;;5.78;;
44480;SDS011;30184;42.018;23.670;2023-06-22T08:05:31;6.88;;;5.53;;
44480;SDS011;30184;42.018;23.670;2023-06-22T08:08:00;6.55;;;5.40;;
44480;SDS011;30184;42.018;23.670;2023-06-22T08:10:29;13.85;;;5.63;;
44480;SDS011;30184;42.018;23.670;2023-06-22T08:12:58;9.05;;;6.20;;
44480;SDS011;30184;42.018;23.670;2023-06-22T08:15:27;7.20;;;5.00;;
44480;SDS011;30184;42.018;23.670;2023-06-22T08:17:58;7.30;;;4.95;;
44480;SDS011;30184;42.018;23.670;2023-06-22T08:20:28;8.90;;;5.57;;
44480;SDS011;30184;42.018;23.670;2023-06-22T08:22:57;8.20;;;4.88;;
44480;SDS011;30184;42.018;23.670;2023-06-22T08:25:33;8.30;;;5.85;;
44480;SDS011;30184;42.018;23.670;2023-06-22T08:28:03;7.65;;;5.93;;
44480;SDS011;30184;42.018;23.670;2023-06-22T08:30:32;7.82;;;5.88;;
44480;SDS011;30184;42.018;23.670;2023-06-22T08:33:03;9.02;;;5.65;;
44480;SDS011;30184;42.018;23.670;2023-06-22T08:35:32;13.80;;;6.35;;
44480;SDS011;30184;42.018;23.670;2023-06-22T08:38:02;9.52;;;5.60;;
44480;SDS011;30184;42.018;23.670;2023-06-22T08:40:31;6.63;;;5.20;;
44480;SDS011;30184;42.018;23.670;2023-06-22T08:43:00;10.95;;;5.25;;
44480;SDS011;30184;42.018;23.670;2023-06-22T08:45:30;8.25;;;5.30;;
44480;SDS011;30184;42.018;23.670;2023-06-22T08:48:00;7.28;;;5.35;;
44480;SDS011;30184;42.018;23.670;2023-06-22T08:50:30;9.13;;;6.32;;
44480;SDS011;30184;42.018;23.670;2023-06-22T08:53:00;7.05;;;5.40;;
44480;SDS011;30184;42.018;23.670;2023-06-22T08:55:29;7.43;;;5.70;;
44480;SDS011;30184;42.018;23.670;2023-06-22T08:57:58;7.20;;;5.70;;
44480;SDS011;30184;42.018;23.670;2023-06-22T09:00:28;9.07;;;5.95;;
44480;SDS011;30184;42.018;23.670;2023-06-22T09:03:00;8.90;;;5.75;;
44480;SDS011;30184;42.018;23.670;2023-06-22T09:05:30;7.88;;;5.88;;
44480;SDS011;30184;42.018;23.670;2023-06-22T09:08:00;11.60;;;5.88;;
44480;SDS011;30184;42.018;23.670;2023-06-22T09:10:29;12.13;;;5.75;;
44480;SDS011;30184;42.018;23.670;2023-06-22T09:12:59;11.30;;;5.57;;
44480;SDS011;30184;42.018;23.670;2023-06-22T09:15:28;7.05;;;5.45;;
44480;SDS011;30184;42.018;23.670;2023-06-22T09:17:58;9.10;;;5.68;;
44480;SDS011;30184;42.018;23.670;2023-06-22T09:20:28;7.97;;;5.07;;
44480;SDS011;30184;42.018;23.670;2023-06-22T09:22:59;10.90;;;6.10;;
44480;SDS011;30184;42.018;23.670;2023-06-22T09:25:29;6.93;;;5.60;;
44480;SDS011;30184;42.018;23.670;2023-06-22T09:28:15;8.02;;;5.60;;
44480;SDS011;30184;42.018;23.670;2023-06-22T09:31:03;8.52;;;5.22;;
44480;SDS011;30184;42.018;23.670;2023-06-22T09:33:32;6.72;;;5.40;;
44480;SDS011;30184;42.018;23.670;2023-06-22T09:36:02;7.68;;;5.40;;
44480;SDS011;30184;42.018;23.670;2023-06-22T09:38:35;11.25;;;6.85;;
44480;SDS011;30184;42.018;23.670;2023-06-22T09:41:04;9.32;;;5.68;;
44480;SDS011;30184;42.018;23.670;2023-06-22T09:43:33;11.55;;;5.68;;
44480;SDS011;30184;42.018;23.670;2023-06-22T09:46:03;8.35;;;5.22;;
44480;SDS011;30184;42.018;23.670;2023-06-22T09:48:34;8.82;;;5.65;;
44480;SDS011;30184;42.018;23.670;2023-06-22T09:51:04;6.38;;;5.10;;
44480;SDS011;30184;42.018;23.670;2023-06-22T09:53:33;9.13;;;5.10;;
44480;SDS011;30184;42.018;23.670;2023-06-22T09:56:05;7.45;;;5.40;;
44480;SDS011;30184;42.018;23.670;2023-06-22T09:58:38;8.18;;;5.32;;
44480;SDS011;30184;42.018;23.670;2023-06-22T10:01:07;7.75;;;5.97;;
44480;SDS011;30184;42.018;23.670;2023-06-22T10:03:37;7.68;;;5.50;;
44480;SDS011;30184;42.018;23.670;2023-06-22T10:06:06;9.00;;;5.75;;
44480;SDS011;30184;42.018;23.670;2023-06-22T10:08:37;10.48;;;6.10;;
44480;SDS011;30184;42.018;23.670;2023-06-22T10:11:08;7.57;;;5.80;;
44480;SDS011;30184;42.018;23.670;2023-06-22T10:13:37;11.23;;;6.07;;
44480;SDS011;30184;42.018;23.670;2023-06-22T10:16:06;8.77;;;5.68;;
44480;SDS011;30184;42.018;23.670;2023-06-22T10:18:35;7.07;;;5.22;;
44480;SDS011;30184;42.018;23.670;2023-06-22T10:21:04;6.30;;;5.55;;
44480;SDS011;30184;42.018;23.670;2023-06-22T10:23:33;9.25;;;5.50;;
44480;SDS011;30184;42.018;23.670;2023-06-22T10:26:04;10.00;;;5.97;;
44480;SDS011;30184;42.018;23.670;2023-06-22T10:28:33;10.90;;;5.70;;
44480;SDS011;30184;42.018;23.670;2023-06-22T10:31:02;7.07;;;4.90;;
44480;SDS011;30184;42.018;23.670;2023-06-22T10:33:31;7.07;;;5.05;;
44480;SDS011;30184;42.018;23.670;2023-06-22T10:36:00;10.95;;;5.45;;
44480;SDS011;30184;42.018;23.670;2023-06-22T10:38:30;6.90;;;5.35;;
44480;SDS011;30184;42.018;23.670;2023-06-22T10:40:59;7.03;;;5.13;;
44480;SDS011;30184;42.018;23.670;2023-06-22T10:43:29;7.18;;;4.82;;
44480;SDS011;30184;42.018;23.670;2023-06-22T10:45:58;9.68;;;4.82;;
44480;SDS011;30184;42.018;23.670;2023-06-22T10:48:27;7.30;;;5.43;;
44480;SDS011;30184;42.018;23.670;2023-06-22T10:50:57;8.40;;;5.03;;
44480;SDS011;30184;42.018;23.670;2023-06-22T10:53:26;7.32;;;4.82;;
44480;SDS011;30184;42.018;23.670;2023-06-22T10:55:55;7.20;;;4.72;;
44480;SDS011;30184;42.018;23.670;2023-06-22T10:58:24;6.97;;;4.90;;
44480;SDS011;30184;42.018;23.670;2023-06-22T11:00:55;9.05;;;5.18;;
44480;SDS011;30184;42.018;23.670;2023-06-22T11:03:24;5.78;;;4.90;;
44480;SDS011;30184;42.018;23.670;2023-06-22T11:05:53;6.90;;;4.95;;
44480;SDS011;30184;42.018;23.670;2023-06-22T11:08:23;6.30;;;4.50;;
44480;SDS011;30184;42.018;23.670;2023-06-22T11:10:52;9.82;;;5.22;;
44480;SDS011;30184;42.018;23.670;2023-06-22T11:13:21;6.20;;;5.10;;
44480;SDS011;30184;42.018;23.670;2023-06-22T11:15:50;8.07;;;5.90;;
44480;SDS011;30184;42.018;23.670;2023-06-22T11:18:21;6.90;;;5.28;;
44480;SDS011;30184;42.018;23.670;2023-06-22T11:20:50;7.43;;;5.25;;
44480;SDS011;30184;42.018;23.670;2023-06-22T11:23:20;8.07;;;5.72;;
44480;SDS011;30184;42.018;23.670;2023-06-22T11:25:49;8.48;;;5.32;;
44480;SDS011;30184;42.018;23.670;2023-06-22T11:28:18;23.45;;;6.40;;
44480;SDS011;30184;42.018;23.670;2023-06-22T11:30:48;8.57;;;5.38;;
44480;SDS011;30184;42.018;23.670;2023-06-22T11:33:17;6.50;;;5.10;;
44480;SDS011;30184;42.018;23.670;2023-06-22T11:35:48;6.93;;;5.07;;
44480;SDS011;30184;42.018;23.670;2023-06-22T11:38:17;6.90;;;5.00;;
44480;SDS011;30184;42.018;23.670;2023-06-22T11:40:46;6.57;;;5.40;;
44480;SDS011;30184;42.018;23.670;2023-06-22T11:43:15;9.10;;;5.22;;
44480;SDS011;30184;42.018;23.670;2023-06-22T11:45:44;8.00;;;5.45;;
44480;SDS011;30184;42.018;23.670;2023-06-22T11:48:13;8.10;;;5.60;;
44480;SDS011;30184;42.018;23.670;2023-06-22T11:50:43;7.38;;;5.82;;
44480;SDS011;30184;42.018;23.670;2023-06-22T11:53:13;6.60;;;4.85;;
44480;SDS011;30184;42.018;23.670;2023-06-22T11:55:44;8.45;;;5.43;;
44480;SDS011;30184;42.018;23.670;2023-06-22T11:58:13;6.13;;;5.40;;
44480;SDS011;30184;42.018;23.670;2023-06-22T12:00:42;7.80;;;4.97;;
44480;SDS011;30184;42.018;23.670;2023-06-22T12:03:16;10.25;;;5.22;;
44480;SDS011;30184;42.018;23.670;2023-06-22T12:05:46;11.00;;;5.70;;
44480;SDS011;30184;42.018;23.670;2023-06-22T12:08:17;11.68;;;5.70;;
44480;SDS011;30184;42.018;23.670;2023-06-22T12:10:46;7.13;;;5.10;;
44480;SDS011;30184;42.018;23.670;2023-06-22T12:13:15;7.95;;;5.38;;
44480;SDS011;30184;42.018;23.670;2023-06-22T12:15:44;9.18;;;6.85;;
44480;SDS011;30184;42.018;23.670;2023-06-22T12:18:13;7.60;;;6.22;;
44480;SDS011;30184;42.018;23.670;2023-06-22T12:20:43;7.50;;;5.55;;
44480;SDS011;30184;42.018;23.670;2023-06-22T12:23:12;7.85;;;5.28;;
44480;SDS011;30184;42.018;23.670;2023-06-22T12:25:44;6.95;;;5.40;;
44480;SDS011;30184;42.018;23.670;2023-06-22T12:28:14;8.57;;;6.15;;
44480;SDS011;30184;42.018;23.670;2023-06-22T12:30:43;12.13;;;5.88;;
44480;SDS011;30184;42.018;23.670;2023-06-22T12:33:13;8.05;;;5.70;;
44480;SDS011;30184;42.018;23.670;2023-06-22T12:35:43;8.60;;;5.72;;
44480;SDS011;30184;42.018;23.670;2023-06-22T12:38:12;8.10;;;5.70;;
44480;SDS011;30184;42.018;23.670;2023-06-22T12:40:43;9.80;;;5.07;;
44480;SDS011;30184;42.018;23.670;2023-06-22T12:43:14;9.77;;;5.65;;
44480;SDS011;30184;42.018;23.670;2023-06-22T12:45:43;7.43;;;5.35;;
44480;SDS011;30184;42.018;23.670;2023-06-22T12:48:12;8.73;;;5.53;;
44480;SDS011;30184;42.018;23.670;2023-06-22T12:50:41;9.23;;;5.70;;
44480;SDS011;30184;42.018;23.670;2023-06-22T12:53:11;8.95;;;5.60;;
44480;SDS011;30184;42.018;23.670;2023-06-22T12:55:40;8.02;;;5.18;;
44480;SDS011;30184;42.018;23.670;2023-06-22T12:58:10;8.25;;;5.43;;
44480;SDS011;30184;42.018;23.670;2023-06-22T13:00:40;8.13;;;5.85;;
44480;SDS011;30184;42.018;23.670;2023-06-22T13:03:09;10.18;;;5.55;;
44480;SDS011;30184;42.018;23.670;2023-06-22T13:05:38;8.60;;;6.35;;
44480;SDS011;30184;42.018;23.670;2023-06-22T13:08:07;15.02;;;6.85;;
44480;SDS011;30184;42.018;23.670;2023-06-22T13:10:38;9.38;;;6.03;;
44480;SDS011;30184;42.018;23.670;2023-06-22T13:13:07;9.70;;;6.13;;
44480;SDS011;30184;42.018;23.670;2023-06-22T13:15:38;8.50;;;5.60;;
44480;SDS011;30184;42.018;23.670;2023-06-22T13:18:07;7.35;;;6.15;;
44480;SDS011;30184;42.018;23.670;2023-06-22T13:20:36;9.07;;;6.82;;
44480;SDS011;30184;42.018;23.670;2023-06-22T13:23:05;7.90;;;6.18;;
44480;SDS011;30184;42.018;23.670;2023-06-22T13:25:34;11.45;;;6.07;;
44480;SDS011;30184;42.018;23.670;2023-06-22T13:28:04;9.65;;;6.13;;
44480;SDS011;30184;42.018;23.670;2023-06-22T13:30:33;16.92;;;8.00;;
44480;SDS011;30184;42.018;23.670;2023-06-22T13:33:04;6.70;;;5.60;;
44480;SDS011;30184;42.018;23.670;2023-06-22T13:35:33;6.00;;;4.45;;
44480;SDS011;30184;42.018;23.670;2023-06-22T13:38:03;7.78;;;4.63;;
44480;SDS011;30184;42.018;23.670;2023-06-22T13:40:32;6.53;;;4.95;;
44480;SDS011;30184;42.018;23.670;2023-06-22T13:43:01;9.55;;;4.30;;
44480;SDS011;30184;42.018;23.670;2023-06-22T13:45:30;11.05;;;4.97;;
44480;SDS011;30184;42.018;23.670;2023-06-22T13:48:00;7.50;;;4.97;;
44480;SDS011;30184;42.018;23.670;2023-06-22T13:50:31;10.73;;;5.43;;
44480;SDS011;30184;42.018;23.670;2023-06-22T13:53:00;9.48;;;5.43;;
44480;SDS011;30184;42.018;23.670;2023-06-22T13:55:29;13.00;;;5.55;;
44480;SDS011;30184;42.018;23.670;2023-06-22T13:57:58;13.90;;;5.68;;
44480;SDS011;30184;42.018;23.670;2023-06-22T14:00:27;8.73;;;5.07;;
44480;SDS011;30184;42.018;23.670;2023-06-22T14:02:56;9.52;;;4.78;;
44480;SDS011;30184;42.018;23.670;2023-06-22T14:05:25;7.47;;;4.43;;
44480;SDS011;30184;42.018;23.670;2023-06-22T14:07:56;9.20;;;4.85;;
44480;SDS011;30184;42.018;23.670;2023-06-22T14:10:25;10.38;;;4.45;;
44480;SDS011;30184;42.018;23.670;2023-06-22T14:12:55;14.93;;;4.78;;
44480;SDS011;30184;42.018;23.670;2023-06-22T14:15:24;9.85;;;5.00;;
44480;SDS011;30184;42.018;23.670;2023-06-22T14:17:53;10.10;;;5.18;;
44480;SDS011;30184;42.018;23.670;2023-06-22T14:20:22;10.48;;;5.22;;
44480;SDS011;30184;42.018;23.670;2023-06-22T14:22:51;11.07;;;6.40;;
44480;SDS011;30184;42.018;23.670;2023-06-22T14:25:22;8.48;;;5.80;;
44480;SDS011;30184;42.018;23.670;2023-06-22T14:27:51;13.65;;;5.38;;
44480;SDS011;30184;42.018;23.670;2023-06-22T14:30:20;10.10;;;5.45;;
44480;SDS011;30184;42.018;23.670;2023-06-22T14:32:49;10.38;;;5.18;;
44480;SDS011;30184;42.018;23.670;2023-06-22T14:35:18;11.68;;;5.80;;
44480;SDS011;30184;42.018;23.670;2023-06-22T14:37:48;15.38;;;5.32;;
44480;SDS011;30184;42.018;23.670;2023-06-22T14:40:17;10.20;;;5.30;;